createdAt,value
2023-02-11T00:02:18.719Z,16.60
2023-02-11T00:04:53.994Z,15.80
2023-02-11T00:07:26.586Z,16.40
2023-02-11T00:09:57.065Z,18.40
2023-02-11T00:12:31.820Z,18.20
2023-02-11T00:15:02.534Z,17.40
2023-02-11T00:17:36.254Z,16.60
2023-02-11T00:20:08.311Z,15.70
2023-02-11T00:22:39.391Z,14.50
2023-02-11T00:25:09.743Z,17.10
2023-02-11T00:27:39.278Z,18.20
2023-02-11T00:30:11.827Z,17.30
2023-02-11T00:32:47.343Z,17.50
2023-02-11T00:35:18.191Z,15.70
2023-02-11T00:37:48.611Z,17.50
2023-02-11T00:40:19.190Z,10.60
2023-02-11T00:42:49.260Z,15.80
2023-02-11T00:45:21.816Z,16.50
2023-02-11T00:47:53.228Z,14.50
2023-02-11T00:50:23.899Z,15.30
2023-02-11T00:52:55.339Z,16.80
2023-02-11T00:55:25.470Z,15.50
2023-02-11T00:57:55.588Z,16.00
2023-02-11T01:00:25.058Z,16.40
2023-02-11T01:02:55.323Z,15.50
2023-02-11T01:05:25.972Z,12.60
2023-02-11T01:07:56.492Z,14.60
2023-02-11T01:10:26.731Z,14.10
2023-02-11T01:12:57.562Z,15.10
2023-02-11T01:15:30.177Z,14.50
2023-02-11T01:18:05.236Z,15.20
2023-02-11T01:20:36.924Z,15.90
2023-02-11T01:23:08.064Z,15.20
2023-02-11T01:25:39.492Z,15.50
2023-02-11T01:28:25.252Z,13.90
2023-02-11T01:30:58.926Z,14.10
2023-02-11T01:33:30.204Z,13.80
2023-02-11T01:36:05.037Z,12.80
2023-02-11T01:38:36.510Z,13.70
2023-02-11T01:41:11.333Z,14.70
2023-02-11T01:43:45.905Z,12.70
2023-02-11T01:46:38.961Z,13.30
2023-02-11T01:49:17.206Z,12.50
2023-02-11T01:52:04.206Z,14.40
2023-02-11T01:54:57.625Z,12.40
2023-02-11T01:57:31.637Z,13.40
2023-02-11T02:00:16.564Z,12.10
2023-02-11T02:03:00.961Z,11.90
2023-02-11T02:06:04.247Z,11.40
2023-02-11T02:08:43.043Z,12.60
2023-02-11T02:11:13.145Z,13.20
2023-02-11T02:13:45.587Z,12.30
2023-02-11T02:16:18.996Z,7.00
2023-02-11T02:19:30.184Z,11.20
2023-02-11T02:22:25.307Z,11.80
2023-02-11T02:25:04.983Z,12.60
2023-02-11T02:27:57.152Z,11.60
2023-02-11T02:30:46.529Z,10.70
2023-02-11T02:33:34.361Z,12.60
2023-02-11T02:36:15.939Z,13.00
2023-02-11T02:38:49.635Z,13.80
2023-02-11T02:41:32.918Z,12.00
2023-02-11T02:44:05.719Z,12.80
2023-02-11T02:46:37.335Z,14.10
2023-02-11T02:49:17.067Z,11.10
2023-02-11T02:52:11.906Z,9.80
2023-02-11T02:54:57.244Z,11.80
2023-02-11T02:57:50.513Z,13.00
2023-02-11T03:01:02.467Z,8.40
2023-02-11T03:03:45.757Z,11.40
2023-02-11T03:06:34.962Z,11.90
2023-02-11T03:10:02.882Z,9.70
2023-02-11T03:12:35.438Z,7.20
2023-02-11T03:15:07.435Z,11.90
2023-02-11T03:17:42.416Z,10.40
2023-02-11T03:20:17.655Z,11.20
2023-02-11T03:22:53.513Z,11.20
2023-02-11T03:25:36.336Z,10.80
2023-02-11T03:28:39.974Z,11.30
2023-02-11T03:31:15.600Z,9.80
2023-02-11T03:34:12.972Z,10.50
2023-02-11T03:36:57.486Z,9.70
2023-02-11T03:39:37.562Z,10.20
2023-02-11T03:42:10.166Z,11.60
2023-02-11T03:44:54.544Z,13.30
2023-02-11T03:47:28.414Z,10.90
2023-02-11T03:50:01.434Z,12.30
2023-02-11T03:52:34.240Z,11.20
2023-02-11T03:55:13.553Z,12.30
2023-02-11T03:57:43.949Z,12.50
2023-02-11T04:00:15.905Z,11.00
2023-02-11T04:02:48.305Z,11.80
2023-02-11T04:05:18.604Z,12.20
2023-02-11T04:07:48.413Z,13.10
2023-02-11T04:10:18.814Z,12.00
2023-02-11T04:12:48.584Z,12.60
2023-02-11T04:17:51.294Z,12.50
2023-02-11T04:20:21.257Z,13.80
2023-02-11T04:22:51.025Z,11.50
2023-02-11T04:25:23.423Z,11.60
2023-02-11T04:27:53.895Z,12.80
2023-02-11T04:30:23.454Z,13.60
2023-02-11T04:32:54.674Z,14.60
2023-02-11T04:35:23.937Z,12.70
2023-02-11T04:37:54.261Z,13.80
2023-02-11T04:40:23.946Z,13.30
2023-02-11T04:45:32.799Z,10.20
2023-02-11T04:48:04.836Z,10.00
2023-02-11T04:50:36.249Z,12.30
2023-02-11T04:53:05.680Z,11.90
2023-02-11T04:55:35.192Z,12.40
2023-02-11T04:58:06.338Z,12.90
2023-02-11T05:00:35.197Z,11.80
2023-02-11T05:03:04.215Z,13.10
2023-02-11T05:05:37.125Z,13.80
2023-02-11T05:08:08.596Z,13.80
2023-02-11T05:10:39.380Z,13.70
2023-02-11T05:13:09.406Z,13.30
2023-02-11T05:15:39.996Z,12.30
2023-02-11T05:18:09.475Z,11.80
2023-02-11T05:20:39.754Z,11.00
2023-02-11T05:23:12.487Z,10.70
2023-02-11T05:28:13.253Z,10.50
2023-02-11T05:30:43.226Z,11.60
2023-02-11T05:33:15.276Z,11.10
2023-02-11T05:35:52.497Z,10.80
2023-02-11T05:38:29.586Z,10.80
2023-02-11T05:41:01.403Z,12.30
2023-02-11T05:43:31.286Z,11.90
2023-02-11T05:46:21.154Z,8.50
2023-02-11T05:48:50.688Z,10.30
2023-02-11T05:51:21.085Z,11.50
2023-02-11T05:53:51.978Z,12.10
2023-02-11T05:56:21.284Z,12.10
2023-02-11T05:58:50.815Z,12.40
2023-02-11T06:01:20.745Z,13.10
2023-02-11T06:03:55.323Z,12.00
2023-02-11T06:06:25.914Z,13.00
2023-02-11T06:08:56.694Z,14.30
2023-02-11T06:11:38.647Z,13.80
2023-02-11T06:14:07.909Z,12.60
2023-02-11T06:16:47.826Z,15.00
2023-02-11T06:19:20.158Z,15.20
2023-02-11T06:21:50.057Z,14.40
2023-02-11T06:24:47.841Z,12.60
2023-02-11T06:27:12.975Z,12.50
2023-02-11T06:29:42.898Z,14.40
2023-02-11T06:32:33.552Z,13.80
2023-02-11T06:35:04.302Z,12.30
2023-02-11T06:37:35.643Z,14.30
2023-02-11T06:40:05.125Z,14.40
2023-02-11T06:42:35.125Z,15.00
2023-02-11T06:45:11.557Z,14.20
2023-02-11T06:47:43.655Z,13.80
2023-02-11T06:50:15.555Z,16.20
2023-02-11T06:52:48.217Z,14.90
2023-02-11T06:55:18.265Z,15.50
2023-02-11T06:57:50.577Z,18.80
2023-02-11T07:00:22.695Z,16.90
2023-02-11T07:02:55.319Z,25.60
2023-02-11T07:05:24.776Z,20.10
2023-02-11T07:07:56.131Z,21.00
2023-02-11T07:10:25.727Z,22.40
2023-02-11T07:12:58.457Z,26.50
2023-02-11T07:15:29.234Z,25.40
2023-02-11T07:18:01.207Z,30.50
2023-02-11T07:20:31.539Z,31.00
2023-02-11T07:23:03.547Z,33.90
2023-02-11T07:25:39.104Z,29.20
2023-02-11T07:28:08.503Z,29.20
2023-02-11T07:30:38.266Z,27.70
2023-02-11T07:33:07.878Z,25.30
2023-02-11T07:35:37.481Z,25.50
2023-02-11T07:38:07.691Z,25.10
2023-02-11T07:40:39.915Z,26.70
2023-02-11T07:43:12.076Z,25.50
2023-02-11T07:45:41.205Z,24.90
2023-02-11T07:48:11.028Z,24.90
2023-02-11T07:50:40.640Z,24.60
2023-02-11T07:53:11.290Z,27.20
2023-02-11T07:55:44.493Z,22.90
2023-02-11T07:58:17.434Z,25.70
2023-02-11T08:03:45.175Z,24.30
2023-02-11T08:06:18.661Z,22.90
2023-02-11T08:08:48.726Z,22.70
2023-02-11T08:11:25.949Z,23.50
2023-02-11T08:13:58.026Z,22.80
2023-02-11T08:16:35.056Z,22.60
2023-02-11T08:19:07.253Z,20.20
2023-02-11T08:21:37.285Z,20.30
2023-02-11T08:24:07.512Z,21.40
2023-02-11T08:26:38.013Z,20.60
2023-02-11T08:29:12.124Z,21.60
2023-02-11T08:31:45.865Z,23.80
2023-02-11T08:34:19.501Z,23.90
2023-02-11T08:36:49.659Z,18.70
2023-02-11T08:39:22.379Z,21.80
2023-02-11T08:41:54.712Z,22.90
2023-02-11T08:44:25.904Z,22.10
2023-02-11T08:46:56.320Z,26.10
2023-02-11T08:49:25.733Z,27.70
2023-02-11T08:52:04.702Z,24.00
2023-02-11T08:54:34.108Z,26.10
2023-02-11T08:57:06.083Z,25.50
2023-02-11T08:59:36.183Z,23.90
2023-02-11T09:02:12.994Z,21.70
2023-02-11T09:04:42.866Z,23.30
2023-02-11T09:07:13.861Z,20.90
2023-02-11T09:09:44.838Z,21.70
2023-02-11T09:12:14.378Z,22.00
2023-02-11T09:14:45.550Z,21.00
2023-02-11T09:17:16.535Z,21.00
2023-02-11T09:19:52.086Z,19.40
2023-02-11T09:22:30.164Z,18.00
2023-02-11T09:24:59.457Z,17.80
2023-02-11T09:27:34.992Z,16.60
2023-02-11T09:30:10.630Z,18.10
2023-02-11T09:32:43.029Z,17.90
2023-02-11T09:37:41.266Z,19.00
2023-02-11T09:40:23.604Z,20.70
2023-02-11T09:43:19.131Z,20.80
2023-02-11T09:46:00.274Z,21.30
2023-02-11T09:48:52.761Z,21.50
2023-02-11T09:52:16.392Z,21.70
2023-02-11T09:55:19.930Z,18.80
2023-02-11T09:57:51.694Z,19.30
2023-02-11T10:00:35.843Z,18.40
2023-02-11T10:03:09.024Z,19.80
2023-02-11T10:06:39.737Z,17.90
2023-02-11T10:09:36.707Z,24.50
2023-02-11T10:12:36.393Z,25.10
2023-02-11T10:15:31.092Z,27.50
2023-02-11T10:18:27.338Z,25.70
2023-02-11T10:21:10.887Z,23.10
2023-02-11T10:23:47.808Z,23.70
2023-02-11T10:26:28.090Z,26.60
2023-02-11T10:29:30.797Z,26.50
2023-02-11T10:32:25.350Z,24.30
2023-02-11T10:35:19.806Z,22.60
2023-02-11T10:37:58.886Z,23.90
2023-02-11T10:40:35.628Z,24.50
2023-02-11T10:43:16.578Z,21.90
2023-02-11T10:45:53.194Z,23.10
2023-02-11T10:49:01.455Z,23.60
2023-02-11T10:51:38.320Z,24.10
2023-02-11T10:54:38.791Z,22.80
2023-02-11T10:57:36.898Z,22.60
2023-02-11T11:00:34.531Z,23.40
2023-02-11T11:03:12.250Z,25.00
2023-02-11T11:05:59.809Z,25.80
2023-02-11T11:08:41.487Z,23.80
2023-02-11T11:11:28.347Z,24.60
2023-02-11T11:14:32.586Z,24.80
2023-02-11T11:17:20.823Z,21.60
2023-02-11T11:20:34.967Z,21.50
2023-02-11T11:23:56.764Z,21.10
2023-02-11T11:27:09.208Z,22.00
2023-02-11T11:29:57.299Z,20.50
2023-02-11T11:32:58.137Z,22.20
2023-02-11T11:35:36.126Z,22.30
2023-02-11T11:38:20.528Z,23.70
2023-02-11T11:41:29.544Z,22.60
2023-02-11T11:44:28.282Z,24.40
2023-02-11T11:47:12.782Z,23.50
2023-02-11T11:50:14.873Z,21.00
2023-02-11T11:53:12.821Z,22.50
2023-02-11T11:56:04.761Z,24.20
2023-02-11T11:58:54.903Z,22.30
2023-02-11T12:01:54.099Z,24.30
2023-02-11T12:05:03.783Z,24.00
2023-02-11T12:08:23.681Z,22.50
2023-02-11T12:11:40.112Z,25.10
2023-02-11T12:14:37.132Z,22.60
2023-02-11T12:17:13.337Z,21.20
2023-02-11T12:20:18.330Z,19.90
2023-02-11T12:23:13.767Z,19.90
2023-02-11T12:26:02.168Z,20.40
2023-02-11T12:29:05.380Z,21.30
2023-02-11T12:32:30.634Z,22.40
2023-02-11T12:38:35.559Z,20.20
2023-02-11T12:41:16.745Z,23.90
2023-02-11T12:43:46.092Z,22.50
2023-02-11T12:46:55.161Z,20.70
2023-02-11T12:50:25.018Z,21.40
2023-02-11T12:53:46.552Z,21.10
2023-02-11T12:56:50.237Z,23.70
2023-02-11T13:00:16.352Z,21.80
2023-02-11T13:03:27.135Z,21.20
2023-02-11T13:06:41.773Z,23.90
2023-02-11T13:12:56.875Z,23.00
2023-02-11T13:15:38.255Z,23.70
2023-02-11T13:18:23.653Z,25.10
2023-02-11T13:21:07.966Z,25.20
2023-02-11T13:24:26.756Z,24.70
2023-02-11T13:27:50.944Z,25.80
2023-02-11T13:31:09.407Z,22.30
2023-02-11T13:33:54.069Z,20.30
2023-02-11T13:36:42.100Z,22.40
2023-02-11T13:39:30.305Z,23.40
2023-02-11T13:42:39.642Z,19.70
2023-02-11T13:45:42.971Z,21.60
2023-02-11T13:49:01.715Z,23.80
2023-02-11T13:51:56.160Z,21.80
2023-02-11T13:54:46.133Z,22.20
2023-02-11T13:57:34.126Z,20.70
2023-02-11T14:00:35.418Z,22.40
2023-02-11T14:03:32.066Z,21.10
2023-02-11T14:06:27.511Z,20.10
2023-02-11T14:09:19.643Z,19.90
2023-02-11T14:12:30.963Z,19.50
2023-02-11T14:15:13.692Z,20.50
2023-02-11T14:17:53.524Z,19.80
2023-02-11T14:20:47.715Z,20.10
2023-02-11T14:23:27.697Z,19.50
2023-02-11T14:26:24.639Z,21.10
2023-02-11T14:29:22.221Z,21.30
2023-02-11T14:32:26.671Z,21.90
2023-02-11T14:35:35.559Z,21.40
2023-02-11T14:38:22.339Z,19.90
2023-02-11T14:41:41.025Z,22.20
2023-02-11T14:44:34.127Z,20.10
2023-02-11T14:47:03.951Z,20.30
2023-02-11T14:49:45.417Z,19.80
2023-02-11T14:52:27.727Z,22.70
2023-02-11T14:55:09.779Z,21.20
2023-02-11T14:57:43.085Z,23.30
2023-02-11T15:00:23.975Z,22.20
2023-02-11T15:02:54.059Z,22.50
2023-02-11T15:05:27.975Z,23.10
2023-02-11T15:08:09.093Z,21.80
2023-02-11T15:10:45.738Z,22.30
2023-02-11T15:13:22.579Z,19.80
2023-02-11T15:15:58.501Z,21.30
2023-02-11T15:18:40.054Z,21.70
2023-02-11T15:21:10.946Z,23.40
2023-02-11T15:23:45.359Z,21.90
2023-02-11T15:26:21.122Z,21.00
2023-02-11T15:28:52.689Z,22.30
2023-02-11T15:31:30.786Z,22.90
2023-02-11T15:34:12.875Z,22.70
2023-02-11T15:36:42.767Z,23.40
2023-02-11T15:39:35.117Z,22.50
2023-02-11T15:42:27.420Z,20.70
2023-02-11T15:45:15.234Z,21.40
2023-02-11T15:47:54.014Z,21.40
2023-02-11T15:50:35.609Z,22.20
2023-02-11T15:53:25.378Z,21.20
2023-02-11T15:56:24.852Z,20.50
2023-02-11T15:58:57.708Z,19.80
2023-02-11T16:01:36.770Z,20.90
2023-02-11T16:04:07.355Z,21.30
2023-02-11T16:06:40.874Z,23.30
2023-02-11T16:09:13.717Z,20.70
2023-02-11T16:11:49.196Z,23.90
2023-02-11T16:14:27.637Z,24.30
2023-02-11T16:17:09.926Z,25.40
2023-02-11T16:22:26.611Z,22.20
2023-02-11T16:25:02.380Z,19.70
2023-02-11T16:27:42.426Z,22.20
2023-02-11T16:30:35.421Z,19.10
2023-02-11T16:33:05.874Z,19.80
2023-02-11T16:35:37.787Z,19.50
2023-02-11T16:38:07.616Z,19.60
2023-02-11T16:40:37.724Z,20.70
2023-02-11T16:43:10.024Z,26.00
2023-02-11T16:45:46.757Z,23.60
2023-02-11T16:48:20.539Z,24.90
2023-02-11T16:50:53.688Z,24.90
2023-02-11T16:53:25.558Z,28.50
2023-02-11T16:56:00.895Z,29.40
2023-02-11T16:58:36.830Z,31.10
2023-02-11T17:01:07.518Z,32.90
2023-02-11T17:03:42.986Z,31.00
2023-02-11T17:06:13.984Z,27.30
2023-02-11T17:08:44.910Z,32.40
2023-02-11T17:11:17.262Z,27.20
2023-02-11T17:13:47.711Z,28.70
2023-02-11T17:16:20.951Z,29.40
2023-02-11T17:18:50.421Z,29.60
2023-02-11T17:21:24.199Z,26.70
2023-02-11T17:23:54.288Z,27.70
2023-02-11T17:26:23.579Z,29.00
2023-02-11T17:28:55.756Z,26.30
2023-02-11T17:31:26.229Z,27.00
2023-02-11T17:33:57.376Z,28.40
2023-02-11T17:36:27.950Z,24.80
2023-02-11T17:39:01.832Z,26.60
2023-02-11T17:41:31.032Z,26.20
2023-02-11T17:44:03.683Z,24.70
2023-02-11T17:46:37.034Z,26.30
2023-02-11T17:51:38.425Z,21.20
2023-02-11T17:54:14.406Z,25.90
2023-02-11T17:56:43.818Z,23.60
2023-02-11T17:59:15.492Z,26.10
2023-02-11T18:01:52.527Z,24.00
2023-02-11T18:04:22.183Z,24.90
2023-02-11T18:06:54.157Z,25.60
2023-02-11T18:09:26.914Z,23.60
2023-02-11T18:11:56.251Z,25.00
2023-02-11T18:14:25.736Z,26.00
2023-02-11T18:16:55.352Z,23.20
2023-02-11T18:19:24.596Z,24.60
2023-02-11T18:21:54.399Z,25.40
2023-02-11T18:24:24.212Z,24.50
2023-02-11T18:26:55.649Z,30.00
2023-02-11T18:29:25.907Z,26.40
2023-02-11T18:31:57.139Z,29.20
2023-02-11T18:34:26.843Z,26.60
2023-02-11T18:36:57.452Z,27.70
2023-02-11T18:39:27.783Z,25.90
2023-02-11T18:42:00.116Z,26.40
2023-02-11T18:44:33.146Z,25.20
2023-02-11T18:47:06.615Z,28.20
2023-02-11T18:49:37.206Z,26.70
2023-02-11T18:52:09.726Z,24.70
2023-02-11T18:54:41.436Z,19.20
2023-02-11T18:57:11.237Z,23.70
2023-02-11T19:00:02.120Z,23.50
2023-02-11T19:02:38.456Z,21.50
2023-02-11T19:05:08.667Z,21.30
2023-02-11T19:07:44.888Z,25.30
2023-02-11T19:10:14.767Z,23.40
2023-02-11T19:12:45.974Z,23.10
2023-02-11T19:15:15.233Z,22.70
2023-02-11T19:17:45.696Z,23.50
2023-02-11T19:20:22.008Z,23.80
2023-02-11T19:22:51.882Z,23.80
2023-02-11T19:25:21.630Z,25.60
2023-02-11T19:27:53.585Z,25.60
2023-02-11T19:30:30.122Z,27.60
2023-02-11T19:33:05.585Z,23.60
2023-02-11T19:36:03.906Z,24.60
2023-02-11T19:38:38.802Z,26.60
2023-02-11T19:41:12.438Z,24.00
2023-02-11T19:43:43.696Z,27.20
2023-02-11T19:46:15.822Z,23.30
2023-02-11T19:48:45.512Z,27.10
2023-02-11T19:51:16.193Z,22.50
2023-02-11T19:53:51.836Z,25.30
2023-02-11T19:56:22.905Z,28.80
2023-02-11T19:58:52.749Z,27.40
2023-02-11T20:01:25.120Z,27.80
2023-02-11T20:04:00.870Z,25.40
2023-02-11T20:06:32.588Z,26.70
2023-02-11T20:09:07.835Z,23.80
2023-02-11T20:11:40.159Z,25.00
2023-02-11T20:14:13.404Z,27.20
2023-02-11T20:16:49.266Z,26.20
2023-02-11T20:19:22.375Z,24.40
2023-02-11T20:21:56.275Z,24.30
2023-02-11T20:24:26.110Z,26.40
2023-02-11T20:26:56.401Z,25.10
2023-02-11T20:29:31.526Z,23.70
2023-02-11T20:32:00.868Z,23.70
2023-02-11T20:34:35.068Z,22.80
2023-02-11T20:37:05.497Z,23.50
2023-02-11T20:39:35.939Z,24.50
2023-02-11T20:42:05.341Z,27.10
2023-02-11T20:44:37.375Z,25.10
2023-02-11T20:47:07.042Z,25.60
2023-02-11T20:49:38.001Z,22.40
2023-02-11T20:52:11.594Z,23.70
2023-02-11T20:54:41.703Z,24.40
2023-02-11T20:57:11.621Z,24.20
2023-02-11T20:59:43.670Z,24.00
2023-02-11T21:02:13.953Z,22.80
2023-02-11T21:04:47.275Z,23.80
2023-02-11T21:07:16.732Z,22.20
2023-02-11T21:09:47.290Z,24.50
2023-02-11T21:12:19.524Z,25.20
2023-02-11T21:14:48.982Z,25.60
2023-02-11T21:17:33.603Z,24.60
2023-02-11T21:20:02.684Z,23.20
2023-02-11T21:22:58.532Z,26.10
2023-02-11T21:25:42.276Z,23.40
2023-02-11T21:28:12.199Z,25.50
2023-02-11T21:30:42.308Z,26.00
2023-02-11T21:33:12.827Z,28.10
2023-02-11T21:35:43.325Z,26.50
2023-02-11T21:38:13.535Z,27.80
2023-02-11T21:40:46.968Z,24.80
2023-02-11T21:43:21.486Z,28.80
2023-02-11T21:45:55.163Z,27.30
2023-02-11T21:48:26.326Z,27.50
2023-02-11T21:50:56.382Z,26.70
2023-02-11T21:53:30.267Z,27.70
2023-02-11T21:56:05.603Z,27.80
2023-02-11T21:58:37.874Z,25.90
2023-02-11T22:01:19.186Z,27.40
2023-02-11T22:03:49.960Z,26.90
2023-02-11T22:06:26.735Z,28.50
2023-02-11T22:08:57.044Z,26.40
2023-02-11T22:11:26.524Z,28.70
2023-02-11T22:13:59.530Z,26.00
2023-02-11T22:16:30.042Z,28.10
2023-02-11T22:19:02.771Z,26.20
2023-02-11T22:21:33.046Z,27.00
2023-02-11T22:24:05.192Z,27.00
2023-02-11T22:26:35.036Z,24.10
2023-02-11T22:29:07.716Z,23.40
2023-02-11T22:31:37.450Z,25.00
2023-02-11T22:34:07.732Z,25.60
2023-02-11T22:36:39.942Z,25.50
2023-02-11T22:39:13.599Z,26.00
2023-02-11T22:41:45.013Z,28.30
2023-02-11T22:46:48.631Z,25.10
2023-02-11T22:49:20.464Z,29.20
2023-02-11T22:51:52.788Z,29.00
2023-02-11T22:54:28.537Z,28.40
2023-02-11T22:56:57.693Z,28.70
2023-02-11T22:59:27.261Z,31.70
2023-02-11T23:01:58.016Z,29.50
2023-02-11T23:04:29.545Z,29.20
2023-02-11T23:06:59.143Z,31.10
2023-02-11T23:09:28.474Z,31.90
2023-02-11T23:11:58.882Z,32.60
2023-02-11T23:14:33.574Z,32.20
2023-02-11T23:17:04.117Z,32.80
2023-02-11T23:19:34.010Z,30.40
2023-02-11T23:22:04.413Z,32.60
2023-02-11T23:24:33.648Z,31.80
2023-02-11T23:27:03.562Z,30.00
2023-02-11T23:29:33.022Z,32.50
2023-02-11T23:32:03.228Z,31.40
2023-02-11T23:34:33.018Z,34.30
2023-02-11T23:37:03.052Z,34.40
2023-02-11T23:39:33.251Z,32.70
2023-02-11T23:42:03.933Z,32.90
2023-02-11T23:44:34.834Z,33.70
2023-02-11T23:47:04.920Z,31.70
2023-02-11T23:49:34.745Z,33.60
2023-02-11T23:52:05.224Z,31.80
2023-02-11T23:54:35.487Z,31.10
2023-02-11T23:57:04.725Z,29.10
2023-02-11T23:59:34.326Z,25.70
